sensor_id;sensor_type;location;lat;lon;timestamp;P1;durP1;ratioP1;P2;durP2;ratioP2
28070;SDS011;15383;48.408;9.968;2024-03-23T00:54:37;7.53;;;3.13;;
28070;SDS011;15383;48.408;9.968;2024-03-23T00:57:03;3.85;;;2.95;;
28070;SDS011;15383;48.408;9.968;2024-03-23T00:59:28;5.03;;;2.67;;
28070;SDS011;15383;48.408;9.968;2024-03-23T01:01:54;6.03;;;3.72;;
28070;SDS011;15383;48.408;9.968;2024-03-23T01:04:20;4.53;;;3.00;;
28070;SDS011;15383;48.408;9.968;2024-03-23T01:06:45;6.43;;;2.50;;
28070;SDS011;15383;48.408;9.968;2024-03-23T01:09:11;5.18;;;2.78;;
28070;SDS011;15383;48.408;9.968;2024-03-23T01:11:37;7.75;;;2.88;;
28070;SDS011;15383;48.408;9.968;2024-03-23T01:14:02;6.00;;;2.95;;
28070;SDS011;15383;48.408;9.968;2024-03-23T01:16:28;5.80;;;2.85;;
28070;SDS011;15383;48.408;9.968;2024-03-23T01:18:54;6.10;;;3.00;;
28070;SDS011;15383;48.408;9.968;2024-03-23T01:21:19;5.15;;;3.00;;
28070;SDS011;15383;48.408;9.968;2024-03-23T01:23:45;7.82;;;2.88;;
28070;SDS011;15383;48.408;9.968;2024-03-23T01:26:10;5.53;;;2.75;;
28070;SDS011;15383;48.408;9.968;2024-03-23T01:28:36;7.20;;;2.83;;
28070;SDS011;15383;48.408;9.968;2024-03-23T01:31:02;8.23;;;3.08;;
28070;SDS011;15383;48.408;9.968;2024-03-23T01:33:27;3.50;;;2.50;;
28070;SDS011;15383;48.408;9.968;2024-03-23T01:35:53;7.68;;;3.28;;
28070;SDS011;15383;48.408;9.968;2024-03-23T01:38:18;6.63;;;2.90;;
28070;SDS011;15383;48.408;9.968;2024-03-23T01:40:44;5.25;;;2.47;;
28070;SDS011;15383;48.408;9.968;2024-03-23T01:43:10;4.95;;;2.67;;
28070;SDS011;15383;48.408;9.968;2024-03-23T01:45:35;3.50;;;2.95;;
28070;SDS011;15383;48.408;9.968;2024-03-23T01:48:02;6.65;;;2.58;;
28070;SDS011;15383;48.408;9.968;2024-03-23T01:50:28;3.53;;;2.40;;
28070;SDS011;15383;48.408;9.968;2024-03-23T01:52:58;8.07;;;2.58;;
28070;SDS011;15383;48.408;9.968;2024-03-23T01:55:24;5.25;;;3.15;;
28070;SDS011;15383;48.408;9.968;2024-03-23T01:57:50;5.05;;;2.65;;
28070;SDS011;15383;48.408;9.968;2024-03-23T02:00:16;4.40;;;3.13;;
28070;SDS011;15383;48.408;9.968;2024-03-23T02:02:43;5.65;;;2.45;;
28070;SDS011;15383;48.408;9.968;2024-03-23T02:05:09;10.27;;;3.08;;
28070;SDS011;15383;48.408;9.968;2024-03-23T02:07:35;5.15;;;2.58;;
28070;SDS011;15383;48.408;9.968;2024-03-23T02:10:02;3.58;;;2.40;;
28070;SDS011;15383;48.408;9.968;2024-03-23T02:12:28;4.25;;;2.40;;
28070;SDS011;15383;48.408;9.968;2024-03-23T02:14:53;4.38;;;2.78;;
28070;SDS011;15383;48.408;9.968;2024-03-23T02:17:19;6.22;;;3.20;;
28070;SDS011;15383;48.408;9.968;2024-03-23T02:19:44;4.93;;;2.42;;
28070;SDS011;15383;48.408;9.968;2024-03-23T02:22:11;4.75;;;2.85;;
28070;SDS011;15383;48.408;9.968;2024-03-23T02:24:37;3.85;;;2.47;;
28070;SDS011;15383;48.408;9.968;2024-03-23T02:27:03;4.80;;;2.90;;
28070;SDS011;15383;48.408;9.968;2024-03-23T02:29:28;4.90;;;2.60;;
28070;SDS011;15383;48.408;9.968;2024-03-23T02:31:54;4.20;;;2.53;;
28070;SDS011;15383;48.408;9.968;2024-03-23T02:34:19;8.85;;;3.10;;
28070;SDS011;15383;48.408;9.968;2024-03-23T02:36:45;3.88;;;2.58;;
28070;SDS011;15383;48.408;9.968;2024-03-23T02:39:10;5.43;;;2.90;;
28070;SDS011;15383;48.408;9.968;2024-03-23T02:41:36;4.95;;;2.63;;
28070;SDS011;15383;48.408;9.968;2024-03-23T02:44:02;4.47;;;2.20;;
28070;SDS011;15383;48.408;9.968;2024-03-23T02:46:27;6.65;;;3.20;;
28070;SDS011;15383;48.408;9.968;2024-03-23T02:48:53;5.20;;;2.42;;
28070;SDS011;15383;48.408;9.968;2024-03-23T02:51:18;7.57;;;3.00;;
28070;SDS011;15383;48.408;9.968;2024-03-23T02:53:44;4.32;;;2.63;;
28070;SDS011;15383;48.408;9.968;2024-03-23T02:56:09;7.50;;;2.90;;
28070;SDS011;15383;48.408;9.968;2024-03-23T02:58:40;5.00;;;3.22;;
28070;SDS011;15383;48.408;9.968;2024-03-23T03:01:06;7.35;;;3.17;;
28070;SDS011;15383;48.408;9.968;2024-03-23T03:03:32;7.85;;;3.00;;
28070;SDS011;15383;48.408;9.968;2024-03-23T03:05:57;4.93;;;2.60;;
28070;SDS011;15383;48.408;9.968;2024-03-23T03:08:23;7.03;;;2.97;;
28070;SDS011;15383;48.408;9.968;2024-03-23T03:10:48;4.82;;;2.50;;
28070;SDS011;15383;48.408;9.968;2024-03-23T03:13:14;4.43;;;2.60;;
28070;SDS011;15383;48.408;9.968;2024-03-23T03:15:40;6.18;;;2.72;;
28070;SDS011;15383;48.408;9.968;2024-03-23T03:18:08;5.43;;;2.90;;
28070;SDS011;15383;48.408;9.968;2024-03-23T03:20:33;7.47;;;3.05;;
28070;SDS011;15383;48.408;9.968;2024-03-23T03:22:59;6.15;;;2.50;;
28070;SDS011;15383;48.408;9.968;2024-03-23T03:25:25;4.63;;;2.95;;
28070;SDS011;15383;48.408;9.968;2024-03-23T03:27:50;4.00;;;2.60;;
28070;SDS011;15383;48.408;9.968;2024-03-23T03:30:16;7.55;;;2.58;;
28070;SDS011;15383;48.408;9.968;2024-03-23T03:32:42;4.57;;;2.88;;
28070;SDS011;15383;48.408;9.968;2024-03-23T03:35:08;7.53;;;2.67;;
28070;SDS011;15383;48.408;9.968;2024-03-23T03:37:33;3.70;;;2.58;;
28070;SDS011;15383;48.408;9.968;2024-03-23T03:39:59;5.68;;;2.78;;
28070;SDS011;15383;48.408;9.968;2024-03-23T03:42:25;3.97;;;2.50;;
28070;SDS011;15383;48.408;9.968;2024-03-23T03:44:50;6.40;;;2.70;;
28070;SDS011;15383;48.408;9.968;2024-03-23T03:47:16;5.55;;;3.10;;
28070;SDS011;15383;48.408;9.968;2024-03-23T03:49:42;3.85;;;2.35;;
28070;SDS011;15383;48.408;9.968;2024-03-23T03:52:07;8.13;;;3.33;;
28070;SDS011;15383;48.408;9.968;2024-03-23T03:54:33;4.00;;;2.78;;
28070;SDS011;15383;48.408;9.968;2024-03-23T03:56:58;6.15;;;2.83;;
28070;SDS011;15383;48.408;9.968;2024-03-23T03:59:24;5.38;;;3.10;;
28070;SDS011;15383;48.408;9.968;2024-03-23T04:01:49;7.78;;;2.85;;
28070;SDS011;15383;48.408;9.968;2024-03-23T04:04:15;6.05;;;2.75;;
28070;SDS011;15383;48.408;9.968;2024-03-23T04:06:41;3.58;;;2.50;;
28070;SDS011;15383;48.408;9.968;2024-03-23T04:09:08;3.38;;;2.40;;
28070;SDS011;15383;48.408;9.968;2024-03-23T04:11:33;4.85;;;2.63;;
28070;SDS011;15383;48.408;9.968;2024-03-23T04:13:59;11.85;;;3.08;;
28070;SDS011;15383;48.408;9.968;2024-03-23T04:16:26;4.03;;;3.15;;
28070;SDS011;15383;48.408;9.968;2024-03-23T04:18:58;4.40;;;3.10;;
28070;SDS011;15383;48.408;9.968;2024-03-23T04:21:24;5.20;;;2.70;;
28070;SDS011;15383;48.408;9.968;2024-03-23T04:23:49;5.68;;;3.47;;
28070;SDS011;15383;48.408;9.968;2024-03-23T04:26:15;4.28;;;3.05;;
28070;SDS011;15383;48.408;9.968;2024-03-23T04:28:41;4.43;;;3.10;;
28070;SDS011;15383;48.408;9.968;2024-03-23T04:31:08;4.25;;;2.97;;
28070;SDS011;15383;48.408;9.968;2024-03-23T04:33:34;6.15;;;3.38;;
28070;SDS011;15383;48.408;9.968;2024-03-23T04:35:59;8.80;;;3.15;;
28070;SDS011;15383;48.408;9.968;2024-03-23T04:38:25;5.22;;;2.85;;
28070;SDS011;15383;48.408;9.968;2024-03-23T04:40:57;5.30;;;3.08;;
28070;SDS011;15383;48.408;9.968;2024-03-23T04:43:23;4.53;;;2.97;;
28070;SDS011;15383;48.408;9.968;2024-03-23T04:45:49;5.65;;;2.78;;
28070;SDS011;15383;48.408;9.968;2024-03-23T04:48:14;3.75;;;2.60;;
28070;SDS011;15383;48.408;9.968;2024-03-23T04:50:40;8.63;;;3.10;;
28070;SDS011;15383;48.408;9.968;2024-03-23T04:53:06;5.97;;;3.00;;
28070;SDS011;15383;48.408;9.968;2024-03-23T04:55:32;5.80;;;3.10;;
28070;SDS011;15383;48.408;9.968;2024-03-23T04:57:57;4.93;;;2.85;;
28070;SDS011;15383;48.408;9.968;2024-03-23T05:00:23;8.23;;;3.42;;
28070;SDS011;15383;48.408;9.968;2024-03-23T05:02:50;8.00;;;3.17;;
28070;SDS011;15383;48.408;9.968;2024-03-23T05:05:15;4.30;;;2.92;;
28070;SDS011;15383;48.408;9.968;2024-03-23T05:07:41;6.30;;;2.72;;
28070;SDS011;15383;48.408;9.968;2024-03-23T05:10:06;4.70;;;2.80;;
28070;SDS011;15383;48.408;9.968;2024-03-23T05:12:36;7.57;;;3.08;;
28070;SDS011;15383;48.408;9.968;2024-03-23T05:15:02;4.05;;;3.15;;
28070;SDS011;15383;48.408;9.968;2024-03-23T05:17:29;11.43;;;3.80;;
28070;SDS011;15383;48.408;9.968;2024-03-23T05:19:55;5.90;;;3.42;;
28070;SDS011;15383;48.408;9.968;2024-03-23T05:22:22;8.15;;;3.17;;
28070;SDS011;15383;48.408;9.968;2024-03-23T05:24:47;6.32;;;3.15;;
28070;SDS011;15383;48.408;9.968;2024-03-23T05:27:13;4.35;;;2.65;;
28070;SDS011;15383;48.408;9.968;2024-03-23T05:29:38;5.40;;;3.20;;
28070;SDS011;15383;48.408;9.968;2024-03-23T05:32:04;5.60;;;2.90;;
28070;SDS011;15383;48.408;9.968;2024-03-23T05:34:30;9.35;;;3.05;;
28070;SDS011;15383;48.408;9.968;2024-03-23T05:36:55;6.50;;;3.28;;
28070;SDS011;15383;48.408;9.968;2024-03-23T05:39:21;5.07;;;3.03;;
28070;SDS011;15383;48.408;9.968;2024-03-23T05:41:47;5.05;;;2.90;;
28070;SDS011;15383;48.408;9.968;2024-03-23T05:44:13;5.45;;;3.20;;
28070;SDS011;15383;48.408;9.968;2024-03-23T05:46:40;6.80;;;3.15;;
28070;SDS011;15383;48.408;9.968;2024-03-23T05:49:06;6.90;;;2.90;;
28070;SDS011;15383;48.408;9.968;2024-03-23T05:51:31;5.10;;;3.15;;
28070;SDS011;15383;48.408;9.968;2024-03-23T05:53:57;7.38;;;3.22;;
28070;SDS011;15383;48.408;9.968;2024-03-23T05:56:22;9.18;;;3.38;;
28070;SDS011;15383;48.408;9.968;2024-03-23T05:58:48;4.55;;;2.90;;
28070;SDS011;15383;48.408;9.968;2024-03-23T06:01:13;6.65;;;3.40;;
28070;SDS011;15383;48.408;9.968;2024-03-23T06:03:39;6.18;;;3.40;;
28070;SDS011;15383;48.408;9.968;2024-03-23T06:06:05;6.82;;;2.85;;
28070;SDS011;15383;48.408;9.968;2024-03-23T06:11:00;5.45;;;3.17;;
28070;SDS011;15383;48.408;9.968;2024-03-23T06:13:26;8.88;;;3.45;;
28070;SDS011;15383;48.408;9.968;2024-03-23T06:15:54;8.38;;;3.30;;
28070;SDS011;15383;48.408;9.968;2024-03-23T06:18:20;6.05;;;3.10;;
28070;SDS011;15383;48.408;9.968;2024-03-23T06:20:46;7.53;;;3.15;;
28070;SDS011;15383;48.408;9.968;2024-03-23T06:23:11;8.00;;;3.50;;
28070;SDS011;15383;48.408;9.968;2024-03-23T06:25:37;6.25;;;2.90;;
28070;SDS011;15383;48.408;9.968;2024-03-23T06:28:03;4.40;;;2.78;;
28070;SDS011;15383;48.408;9.968;2024-03-23T06:30:29;4.95;;;3.13;;
28070;SDS011;15383;48.408;9.968;2024-03-23T06:32:56;5.78;;;3.00;;
28070;SDS011;15383;48.408;9.968;2024-03-23T06:35:22;7.90;;;3.30;;
28070;SDS011;15383;48.408;9.968;2024-03-23T06:37:47;4.30;;;2.88;;
28070;SDS011;15383;48.408;9.968;2024-03-23T06:40:13;5.05;;;2.58;;
28070;SDS011;15383;48.408;9.968;2024-03-23T06:42:39;6.70;;;2.85;;
28070;SDS011;15383;48.408;9.968;2024-03-23T06:45:05;5.65;;;2.90;;
28070;SDS011;15383;48.408;9.968;2024-03-23T06:47:31;4.22;;;2.50;;
28070;SDS011;15383;48.408;9.968;2024-03-23T06:49:57;4.90;;;2.67;;
28070;SDS011;15383;48.408;9.968;2024-03-23T06:52:24;5.65;;;2.63;;
28070;SDS011;15383;48.408;9.968;2024-03-23T06:54:49;3.00;;;2.30;;
28070;SDS011;15383;48.408;9.968;2024-03-23T06:57:15;5.90;;;2.47;;
28070;SDS011;15383;48.408;9.968;2024-03-23T06:59:40;2.63;;;1.98;;
28070;SDS011;15383;48.408;9.968;2024-03-23T07:02:07;3.90;;;2.00;;
28070;SDS011;15383;48.408;9.968;2024-03-23T07:04:36;4.45;;;1.63;;
28070;SDS011;15383;48.408;9.968;2024-03-23T07:07:01;5.10;;;2.38;;
28070;SDS011;15383;48.408;9.968;2024-03-23T07:09:30;2.50;;;2.13;;
28070;SDS011;15383;48.408;9.968;2024-03-23T07:11:56;2.60;;;1.70;;
28070;SDS011;15383;48.408;9.968;2024-03-23T07:14:22;3.08;;;1.70;;
28070;SDS011;15383;48.408;9.968;2024-03-23T07:16:48;3.22;;;1.80;;
28070;SDS011;15383;48.408;9.968;2024-03-23T07:19:15;2.00;;;1.70;;
28070;SDS011;15383;48.408;9.968;2024-03-23T07:21:41;3.67;;;1.70;;
28070;SDS011;15383;48.408;9.968;2024-03-23T07:24:07;2.55;;;1.83;;
28070;SDS011;15383;48.408;9.968;2024-03-23T07:26:33;2.60;;;1.42;;
28070;SDS011;15383;48.408;9.968;2024-03-23T07:28:59;2.10;;;1.70;;
28070;SDS011;15383;48.408;9.968;2024-03-23T07:31:24;2.78;;;1.80;;
28070;SDS011;15383;48.408;9.968;2024-03-23T07:33:50;1.98;;;1.63;;
28070;SDS011;15383;48.408;9.968;2024-03-23T07:36:15;1.67;;;1.30;;
28070;SDS011;15383;48.408;9.968;2024-03-23T07:38:41;3.47;;;1.75;;
28070;SDS011;15383;48.408;9.968;2024-03-23T07:41:10;3.15;;;1.67;;
28070;SDS011;15383;48.408;9.968;2024-03-23T07:43:37;2.90;;;1.80;;
28070;SDS011;15383;48.408;9.968;2024-03-23T07:46:03;2.92;;;1.83;;
28070;SDS011;15383;48.408;9.968;2024-03-23T07:48:29;2.55;;;1.80;;
28070;SDS011;15383;48.408;9.968;2024-03-23T07:50:59;2.58;;;1.80;;
28070;SDS011;15383;48.408;9.968;2024-03-23T07:53:27;2.72;;;1.60;;
28070;SDS011;15383;48.408;9.968;2024-03-23T07:55:56;5.90;;;2.05;;
28070;SDS011;15383;48.408;9.968;2024-03-23T07:58:30;2.53;;;1.67;;
28070;SDS011;15383;48.408;9.968;2024-03-23T08:00:56;2.85;;;1.80;;
28070;SDS011;15383;48.408;9.968;2024-03-23T08:03:28;2.95;;;2.05;;
28070;SDS011;15383;48.408;9.968;2024-03-23T08:05:53;2.63;;;1.63;;
28070;SDS011;15383;48.408;9.968;2024-03-23T08:08:19;2.05;;;1.50;;
28070;SDS011;15383;48.408;9.968;2024-03-23T08:10:51;3.25;;;1.45;;
28070;SDS011;15383;48.408;9.968;2024-03-23T08:13:18;2.80;;;1.20;;
28070;SDS011;15383;48.408;9.968;2024-03-23T08:15:44;3.20;;;1.30;;
28070;SDS011;15383;48.408;9.968;2024-03-23T08:18:10;1.98;;;1.35;;
28070;SDS011;15383;48.408;9.968;2024-03-23T08:20:36;2.00;;;1.35;;
28070;SDS011;15383;48.408;9.968;2024-03-23T08:23:02;1.08;;;1.00;;
28070;SDS011;15383;48.408;9.968;2024-03-23T08:25:30;0.85;;;0.80;;
28070;SDS011;15383;48.408;9.968;2024-03-23T08:27:56;1.38;;;1.17;;
28070;SDS011;15383;48.408;9.968;2024-03-23T08:30:22;1.98;;;1.25;;
28070;SDS011;15383;48.408;9.968;2024-03-23T08:32:47;1.38;;;0.95;;
28070;SDS011;15383;48.408;9.968;2024-03-23T08:35:13;1.38;;;0.80;;
28070;SDS011;15383;48.408;9.968;2024-03-23T08:37:39;1.15;;;0.98;;
28070;SDS011;15383;48.408;9.968;2024-03-23T08:40:05;1.17;;;0.98;;
28070;SDS011;15383;48.408;9.968;2024-03-23T08:42:31;0.93;;;0.85;;
28070;SDS011;15383;48.408;9.968;2024-03-23T08:44:57;1.33;;;0.70;;
28070;SDS011;15383;48.408;9.968;2024-03-23T08:47:22;0.60;;;0.60;;
28070;SDS011;15383;48.408;9.968;2024-03-23T08:49:48;0.75;;;0.75;;
28070;SDS011;15383;48.408;9.968;2024-03-23T08:52:14;0.70;;;0.70;;
28070;SDS011;15383;48.408;9.968;2024-03-23T08:54:40;0.60;;;0.60;;
28070;SDS011;15383;48.408;9.968;2024-03-23T08:57:05;0.63;;;0.63;;
28070;SDS011;15383;48.408;9.968;2024-03-23T08:59:32;0.68;;;0.60;;
28070;SDS011;15383;48.408;9.968;2024-03-23T09:01:57;0.45;;;0.45;;
28070;SDS011;15383;48.408;9.968;2024-03-23T09:04:23;0.60;;;0.60;;
28070;SDS011;15383;48.408;9.968;2024-03-23T09:06:49;0.50;;;0.50;;
28070;SDS011;15383;48.408;9.968;2024-03-23T09:09:14;0.63;;;0.63;;
28070;SDS011;15383;48.408;9.968;2024-03-23T09:11:40;0.63;;;0.63;;
28070;SDS011;15383;48.408;9.968;2024-03-23T09:14:06;2.38;;;0.70;;
28070;SDS011;15383;48.408;9.968;2024-03-23T09:16:31;0.57;;;0.57;;
28070;SDS011;15383;48.408;9.968;2024-03-23T09:18:57;0.80;;;0.50;;
28070;SDS011;15383;48.408;9.968;2024-03-23T09:21:22;1.23;;;0.60;;
28070;SDS011;15383;48.408;9.968;2024-03-23T09:23:48;0.50;;;0.50;;
28070;SDS011;15383;48.408;9.968;2024-03-23T09:26:14;0.50;;;0.50;;
28070;SDS011;15383;48.408;9.968;2024-03-23T09:28:40;0.60;;;0.50;;
28070;SDS011;15383;48.408;9.968;2024-03-23T09:31:06;1.05;;;0.70;;
28070;SDS011;15383;48.408;9.968;2024-03-23T09:33:33;2.53;;;0.80;;
28070;SDS011;15383;48.408;9.968;2024-03-23T09:36:03;0.95;;;0.80;;
28070;SDS011;15383;48.408;9.968;2024-03-23T09:38:29;0.70;;;0.70;;
28070;SDS011;15383;48.408;9.968;2024-03-23T09:40:54;1.08;;;0.80;;
28070;SDS011;15383;48.408;9.968;2024-03-23T09:43:20;0.75;;;0.60;;
28070;SDS011;15383;48.408;9.968;2024-03-23T09:45:46;1.48;;;0.65;;
28070;SDS011;15383;48.408;9.968;2024-03-23T09:48:12;0.88;;;0.77;;
28070;SDS011;15383;48.408;9.968;2024-03-23T09:50:41;1.23;;;0.85;;
28070;SDS011;15383;48.408;9.968;2024-03-23T09:53:08;1.00;;;1.00;;
28070;SDS011;15383;48.408;9.968;2024-03-23T09:55:36;3.10;;;1.00;;
28070;SDS011;15383;48.408;9.968;2024-03-23T09:58:02;1.73;;;0.70;;
28070;SDS011;15383;48.408;9.968;2024-03-23T10:00:30;1.98;;;0.82;;
28070;SDS011;15383;48.408;9.968;2024-03-23T10:03:01;5.38;;;1.17;;
28070;SDS011;15383;48.408;9.968;2024-03-23T10:05:27;0.90;;;0.90;;
28070;SDS011;15383;48.408;9.968;2024-03-23T10:07:54;0.90;;;0.80;;
28070;SDS011;15383;48.408;9.968;2024-03-23T10:10:20;1.40;;;0.90;;
28070;SDS011;15383;48.408;9.968;2024-03-23T10:12:49;1.20;;;0.98;;
28070;SDS011;15383;48.408;9.968;2024-03-23T10:17:48;1.35;;;1.08;;
28070;SDS011;15383;48.408;9.968;2024-03-23T10:20:20;1.90;;;1.10;;
28070;SDS011;15383;48.408;9.968;2024-03-23T10:22:47;1.77;;;1.08;;
28070;SDS011;15383;48.408;9.968;2024-03-23T10:25:24;1.88;;;0.98;;
28070;SDS011;15383;48.408;9.968;2024-03-23T10:27:59;5.00;;;1.35;;
28070;SDS011;15383;48.408;9.968;2024-03-23T10:30:25;10.73;;;1.30;;
28070;SDS011;15383;48.408;9.968;2024-03-23T10:33:06;2.45;;;1.23;;
28070;SDS011;15383;48.408;9.968;2024-03-23T10:35:36;2.05;;;1.60;;
28070;SDS011;15383;48.408;9.968;2024-03-23T10:38:04;3.00;;;1.48;;
28070;SDS011;15383;48.408;9.968;2024-03-23T10:40:31;3.33;;;1.58;;
28070;SDS011;15383;48.408;9.968;2024-03-23T10:42:59;1.80;;;1.40;;
28070;SDS011;15383;48.408;9.968;2024-03-23T10:45:25;5.00;;;1.55;;
28070;SDS011;15383;48.408;9.968;2024-03-23T10:47:50;5.53;;;1.70;;
28070;SDS011;15383;48.408;9.968;2024-03-23T10:50:17;2.15;;;1.40;;
28070;SDS011;15383;48.408;9.968;2024-03-23T10:52:43;5.53;;;1.63;;
28070;SDS011;15383;48.408;9.968;2024-03-23T10:55:12;3.10;;;2.05;;
28070;SDS011;15383;48.408;9.968;2024-03-23T10:57:41;3.25;;;1.75;;
28070;SDS011;15383;48.408;9.968;2024-03-23T11:00:13;5.28;;;1.90;;
28070;SDS011;15383;48.408;9.968;2024-03-23T11:02:39;6.13;;;2.30;;
28070;SDS011;15383;48.408;9.968;2024-03-23T11:07:49;3.63;;;1.92;;
28070;SDS011;15383;48.408;9.968;2024-03-23T11:10:25;3.78;;;1.83;;
28070;SDS011;15383;48.408;9.968;2024-03-23T11:12:58;3.50;;;2.03;;
28070;SDS011;15383;48.408;9.968;2024-03-23T11:15:42;5.03;;;2.05;;
28070;SDS011;15383;48.408;9.968;2024-03-23T11:18:08;5.35;;;1.83;;
28070;SDS011;15383;48.408;9.968;2024-03-23T11:20:34;3.38;;;2.13;;
28070;SDS011;15383;48.408;9.968;2024-03-23T11:23:00;7.70;;;2.22;;
28070;SDS011;15383;48.408;9.968;2024-03-23T11:25:26;4.53;;;2.25;;
28070;SDS011;15383;48.408;9.968;2024-03-23T11:27:53;4.07;;;2.33;;
28070;SDS011;15383;48.408;9.968;2024-03-23T11:32:50;6.47;;;2.47;;
28070;SDS011;15383;48.408;9.968;2024-03-23T11:40:45;2.75;;;1.55;;
28070;SDS011;15383;48.408;9.968;2024-03-23T11:43:19;4.38;;;1.70;;
28070;SDS011;15383;48.408;9.968;2024-03-23T11:45:46;2.45;;;1.58;;
28070;SDS011;15383;48.408;9.968;2024-03-23T11:48:20;4.75;;;2.28;;
28070;SDS011;15383;48.408;9.968;2024-03-23T11:50:47;5.43;;;1.85;;
28070;SDS011;15383;48.408;9.968;2024-03-23T11:53:18;7.75;;;1.27;;
28070;SDS011;15383;48.408;9.968;2024-03-23T11:55:47;3.75;;;1.75;;
28070;SDS011;15383;48.408;9.968;2024-03-23T11:58:14;3.53;;;1.45;;
28070;SDS011;15383;48.408;9.968;2024-03-23T12:00:41;5.50;;;1.83;;
28070;SDS011;15383;48.408;9.968;2024-03-23T12:03:07;3.30;;;2.10;;
28070;SDS011;15383;48.408;9.968;2024-03-23T12:05:33;7.32;;;1.70;;
28070;SDS011;15383;48.408;9.968;2024-03-23T12:11:04;7.93;;;1.70;;
28070;SDS011;15383;48.408;9.968;2024-03-23T12:13:31;3.22;;;1.27;;
28070;SDS011;15383;48.408;9.968;2024-03-23T12:16:08;11.18;;;1.58;;
28070;SDS011;15383;48.408;9.968;2024-03-23T12:18:50;4.60;;;1.65;;
28070;SDS011;15383;48.408;9.968;2024-03-23T12:21:19;6.53;;;1.17;;
28070;SDS011;15383;48.408;9.968;2024-03-23T12:23:47;2.67;;;1.20;;
28070;SDS011;15383;48.408;9.968;2024-03-23T12:26:15;4.47;;;1.20;;
28070;SDS011;15383;48.408;9.968;2024-03-23T12:28:42;7.03;;;1.20;;
28070;SDS011;15383;48.408;9.968;2024-03-23T12:31:08;2.95;;;1.35;;
28070;SDS011;15383;48.408;9.968;2024-03-23T12:33:33;8.30;;;1.63;;
28070;SDS011;15383;48.408;9.968;2024-03-23T12:35:59;2.28;;;0.93;;
28070;SDS011;15383;48.408;9.968;2024-03-23T12:38:24;5.32;;;1.38;;
28070;SDS011;15383;48.408;9.968;2024-03-23T12:40:50;4.78;;;1.40;;
28070;SDS011;15383;48.408;9.968;2024-03-23T12:43:16;6.68;;;1.80;;
28070;SDS011;15383;48.408;9.968;2024-03-23T12:45:46;3.13;;;1.00;;
28070;SDS011;15383;48.408;9.968;2024-03-23T12:48:15;2.42;;;1.40;;
28070;SDS011;15383;48.408;9.968;2024-03-23T12:50:41;3.72;;;1.58;;
28070;SDS011;15383;48.408;9.968;2024-03-23T12:53:06;1.98;;;0.95;;
28070;SDS011;15383;48.408;9.968;2024-03-23T12:55:34;2.38;;;1.20;;
28070;SDS011;15383;48.408;9.968;2024-03-23T12:58:00;4.25;;;1.25;;
28070;SDS011;15383;48.408;9.968;2024-03-23T13:00:25;2.60;;;1.10;;
28070;SDS011;15383;48.408;9.968;2024-03-23T13:02:51;2.67;;;1.08;;
28070;SDS011;15383;48.408;9.968;2024-03-23T13:05:16;3.22;;;1.35;;
28070;SDS011;15383;48.408;9.968;2024-03-23T13:07:42;3.00;;;1.23;;
28070;SDS011;15383;48.408;9.968;2024-03-23T13:10:07;2.15;;;1.20;;
28070;SDS011;15383;48.408;9.968;2024-03-23T13:12:33;8.02;;;1.50;;
28070;SDS011;15383;48.408;9.968;2024-03-23T13:14:59;1.98;;;1.20;;
28070;SDS011;15383;48.408;9.968;2024-03-23T13:17:26;4.05;;;1.27;;
28070;SDS011;15383;48.408;9.968;2024-03-23T13:19:52;2.72;;;1.25;;
28070;SDS011;15383;48.408;9.968;2024-03-23T13:22:18;5.72;;;1.55;;
28070;SDS011;15383;48.408;9.968;2024-03-23T13:24:43;4.05;;;1.55;;
28070;SDS011;15383;48.408;9.968;2024-03-23T13:27:09;5.40;;;1.85;;
28070;SDS011;15383;48.408;9.968;2024-03-23T13:29:35;4.68;;;1.77;;
28070;SDS011;15383;48.408;9.968;2024-03-23T13:32:02;3.80;;;1.70;;
28070;SDS011;15383;48.408;9.968;2024-03-23T13:34:28;4.72;;;1.27;;
28070;SDS011;15383;48.408;9.968;2024-03-23T13:36:54;5.40;;;1.65;;
28070;SDS011;15383;48.408;9.968;2024-03-23T13:39:21;5.13;;;2.03;;
28070;SDS011;15383;48.408;9.968;2024-03-23T13:41:46;5.80;;;1.85;;
28070;SDS011;15383;48.408;9.968;2024-03-23T13:44:12;3.38;;;1.52;;
28070;SDS011;15383;48.408;9.968;2024-03-23T13:46:39;3.13;;;1.40;;
28070;SDS011;15383;48.408;9.968;2024-03-23T13:49:18;3.60;;;1.73;;
28070;SDS011;15383;48.408;9.968;2024-03-23T13:51:56;8.18;;;1.73;;
28070;SDS011;15383;48.408;9.968;2024-03-23T13:54:23;5.68;;;1.85;;
28070;SDS011;15383;48.408;9.968;2024-03-23T13:56:49;3.25;;;1.75;;
28070;SDS011;15383;48.408;9.968;2024-03-23T14:01:45;4.53;;;1.77;;
28070;SDS011;15383;48.408;9.968;2024-03-23T14:04:11;8.35;;;1.52;;
28070;SDS011;15383;48.408;9.968;2024-03-23T14:06:38;8.07;;;1.92;;
28070;SDS011;15383;48.408;9.968;2024-03-23T14:09:04;9.45;;;1.95;;
28070;SDS011;15383;48.408;9.968;2024-03-23T14:11:30;6.00;;;1.83;;
28070;SDS011;15383;48.408;9.968;2024-03-23T14:13:56;5.85;;;1.92;;
28070;SDS011;15383;48.408;9.968;2024-03-23T14:16:21;5.53;;;1.77;;
28070;SDS011;15383;48.408;9.968;2024-03-23T14:18:47;5.47;;;1.73;;
28070;SDS011;15383;48.408;9.968;2024-03-23T14:21:12;4.63;;;1.40;;
28070;SDS011;15383;48.408;9.968;2024-03-23T14:23:38;4.32;;;1.45;;
28070;SDS011;15383;48.408;9.968;2024-03-23T14:26:05;9.88;;;2.00;;
28070;SDS011;15383;48.408;9.968;2024-03-23T14:28:31;4.30;;;1.30;;
28070;SDS011;15383;48.408;9.968;2024-03-23T14:30:57;3.15;;;1.50;;
28070;SDS011;15383;48.408;9.968;2024-03-23T14:33:23;4.32;;;1.55;;
28070;SDS011;15383;48.408;9.968;2024-03-23T14:35:52;4.07;;;0.95;;
28070;SDS011;15383;48.408;9.968;2024-03-23T14:38:19;6.97;;;1.25;;
28070;SDS011;15383;48.408;9.968;2024-03-23T14:40:45;3.05;;;1.20;;
28070;SDS011;15383;48.408;9.968;2024-03-23T14:43:11;3.85;;;1.17;;
28070;SDS011;15383;48.408;9.968;2024-03-23T14:45:37;3.35;;;1.15;;
28070;SDS011;15383;48.408;9.968;2024-03-23T14:48:02;2.38;;;1.05;;
28070;SDS011;15383;48.408;9.968;2024-03-23T14:50:28;6.57;;;1.20;;
28070;SDS011;15383;48.408;9.968;2024-03-23T14:52:54;8.30;;;1.20;;
28070;SDS011;15383;48.408;9.968;2024-03-23T14:55:19;5.90;;;1.10;;
28070;SDS011;15383;48.408;9.968;2024-03-23T14:57:45;2.08;;;1.30;;
28070;SDS011;15383;48.408;9.968;2024-03-23T15:00:11;4.68;;;1.20;;
28070;SDS011;15383;48.408;9.968;2024-03-23T15:02:37;4.05;;;1.48;;
28070;SDS011;15383;48.408;9.968;2024-03-23T15:05:03;7.53;;;1.58;;
28070;SDS011;15383;48.408;9.968;2024-03-23T15:07:29;2.22;;;1.15;;
28070;SDS011;15383;48.408;9.968;2024-03-23T15:09:55;7.30;;;1.50;;
28070;SDS011;15383;48.408;9.968;2024-03-23T15:12:21;2.05;;;1.20;;
28070;SDS011;15383;48.408;9.968;2024-03-23T15:14:47;7.50;;;1.27;;
28070;SDS011;15383;48.408;9.968;2024-03-23T15:17:12;5.38;;;1.33;;
28070;SDS011;15383;48.408;9.968;2024-03-23T15:19:38;4.00;;;1.20;;
28070;SDS011;15383;48.408;9.968;2024-03-23T15:22:04;2.47;;;1.42;;
28070;SDS011;15383;48.408;9.968;2024-03-23T15:24:29;6.50;;;1.40;;
28070;SDS011;15383;48.408;9.968;2024-03-23T15:26:56;4.65;;;1.35;;
28070;SDS011;15383;48.408;9.968;2024-03-23T15:29:22;2.38;;;1.10;;
28070;SDS011;15383;48.408;9.968;2024-03-23T15:31:48;4.72;;;1.40;;
28070;SDS011;15383;48.408;9.968;2024-03-23T15:34:17;5.20;;;1.10;;
28070;SDS011;15383;48.408;9.968;2024-03-23T15:36:44;5.80;;;1.20;;
28070;SDS011;15383;48.408;9.968;2024-03-23T15:39:10;6.20;;;1.20;;
28070;SDS011;15383;48.408;9.968;2024-03-23T15:41:35;4.45;;;1.20;;
28070;SDS011;15383;48.408;9.968;2024-03-23T15:44:02;1.23;;;0.88;;
28070;SDS011;15383;48.408;9.968;2024-03-23T15:46:27;1.48;;;1.15;;
28070;SDS011;15383;48.408;9.968;2024-03-23T15:48:53;4.55;;;1.08;;
28070;SDS011;15383;48.408;9.968;2024-03-23T15:51:19;4.32;;;1.20;;
28070;SDS011;15383;48.408;9.968;2024-03-23T15:53:45;1.80;;;0.90;;
28070;SDS011;15383;48.408;9.968;2024-03-23T15:56:11;1.48;;;0.82;;
28070;SDS011;15383;48.408;9.968;2024-03-23T15:58:37;2.78;;;1.10;;